createdAt,value
2023-03-23T00:00:19.192Z,45.92
2023-03-23T00:01:19.094Z,47.70
2023-03-23T00:04:47.135Z,44.47
2023-03-23T00:05:47.096Z,45.44
2023-03-23T00:06:47.093Z,47.37
2023-03-23T00:07:47.084Z,48.98
2023-03-23T00:08:47.063Z,45.60
2023-03-23T00:09:47.067Z,44.47
2023-03-23T00:10:47.048Z,45.76
2023-03-23T00:11:47.032Z,44.15
2023-03-23T00:12:47.020Z,43.02
2023-03-23T00:13:47.015Z,42.86
2023-03-23T00:14:47.012Z,41.25
2023-03-23T00:15:46.992Z,43.18
2023-03-23T00:16:46.976Z,42.70
2023-03-23T00:17:46.978Z,44.96
2023-03-23T00:18:46.978Z,52.21
2023-03-23T00:19:46.966Z,54.14
2023-03-23T00:20:46.941Z,45.60
2023-03-23T00:21:46.934Z,46.73
2023-03-23T00:22:46.923Z,44.96
2023-03-23T00:23:46.911Z,59.14
2023-03-23T00:24:46.949Z,45.28
2023-03-23T00:25:46.897Z,45.76
2023-03-23T00:26:48.069Z,46.25
2023-03-23T00:27:46.875Z,45.12
2023-03-23T00:28:46.864Z,46.08
2023-03-23T00:29:46.854Z,45.60
2023-03-23T00:30:46.862Z,46.25
2023-03-23T00:31:46.831Z,46.57
2023-03-23T00:32:46.815Z,45.12
2023-03-23T00:33:46.821Z,46.08
2023-03-23T00:34:46.804Z,47.05
2023-03-23T00:35:46.836Z,47.05
2023-03-23T00:36:46.780Z,45.60
2023-03-23T00:37:46.775Z,43.51
2023-03-23T00:38:46.759Z,44.96
2023-03-23T00:39:46.757Z,45.92
2023-03-23T00:40:46.754Z,44.96
2023-03-23T00:41:46.729Z,45.28
2023-03-23T00:42:46.728Z,45.92
2023-03-23T00:43:46.720Z,44.15
2023-03-23T00:44:46.697Z,46.89
2023-03-23T00:45:46.702Z,45.60
2023-03-23T00:46:46.674Z,46.89
2023-03-23T00:47:46.671Z,45.28
2023-03-23T00:48:46.659Z,43.67
2023-03-23T00:49:46.652Z,44.15
2023-03-23T00:50:46.646Z,45.92
2023-03-23T00:51:46.652Z,46.89
2023-03-23T00:52:46.616Z,45.92
2023-03-23T00:53:46.619Z,46.89
2023-03-23T00:54:46.597Z,46.89
2023-03-23T00:55:46.603Z,46.73
2023-03-23T00:56:46.578Z,46.57
2023-03-23T00:57:46.567Z,45.44
2023-03-23T00:58:46.560Z,45.76
2023-03-23T00:59:46.549Z,44.47
2023-03-23T01:00:46.561Z,47.37
2023-03-23T01:01:46.532Z,44.31
2023-03-23T01:02:46.526Z,43.34
2023-03-23T01:03:46.508Z,54.95
2023-03-23T01:04:46.509Z,53.98
2023-03-23T01:05:46.501Z,57.20
2023-03-23T01:06:46.478Z,46.57
2023-03-23T01:07:46.476Z,49.95
2023-03-23T01:08:46.456Z,48.02
2023-03-23T01:09:46.455Z,46.41
2023-03-23T01:10:46.459Z,48.50
2023-03-23T01:11:46.467Z,47.53
2023-03-23T01:12:47.595Z,43.02
2023-03-23T01:13:47.575Z,44.47
2023-03-23T01:14:47.537Z,45.92
2023-03-23T01:15:47.559Z,46.25
2023-03-23T01:16:47.530Z,48.34
2023-03-23T01:17:47.513Z,43.67
2023-03-23T01:18:47.493Z,45.44
2023-03-23T01:19:47.537Z,44.31
2023-03-23T01:20:47.511Z,44.79
2023-03-23T01:21:47.483Z,60.42
2023-03-23T01:22:47.504Z,47.37
2023-03-23T01:23:47.460Z,46.57
2023-03-23T01:24:47.446Z,43.83
2023-03-23T01:25:47.457Z,43.83
2023-03-23T01:26:47.441Z,43.99
2023-03-23T01:27:47.422Z,44.31
2023-03-23T01:28:47.430Z,45.44
2023-03-23T01:29:47.393Z,42.70
2023-03-23T01:30:47.401Z,46.08
2023-03-23T01:31:47.396Z,43.51
2023-03-23T01:32:47.384Z,44.79
2023-03-23T01:33:47.392Z,43.51
2023-03-23T01:34:47.377Z,43.02
2023-03-23T01:35:47.390Z,53.01
2023-03-23T01:36:47.341Z,48.34
2023-03-23T01:37:47.382Z,48.82
2023-03-23T01:38:47.366Z,46.89
2023-03-23T01:39:47.337Z,48.34
2023-03-23T01:40:47.350Z,53.33
2023-03-23T01:41:47.357Z,50.43
2023-03-23T01:42:47.300Z,46.57
2023-03-23T01:43:47.302Z,45.92
2023-03-23T01:44:47.305Z,44.47
2023-03-23T01:45:47.300Z,45.92
2023-03-23T01:46:47.268Z,46.25
2023-03-23T01:47:47.253Z,46.25
2023-03-23T01:48:47.252Z,45.12
2023-03-23T01:49:47.242Z,42.38
2023-03-23T01:50:47.268Z,44.79
2023-03-23T01:51:47.280Z,45.60
2023-03-23T01:52:47.240Z,48.34
2023-03-23T01:53:47.186Z,47.86
2023-03-23T01:54:47.205Z,46.08
2023-03-23T01:55:47.207Z,50.11
2023-03-23T01:56:47.176Z,50.76
2023-03-23T01:57:47.213Z,48.18
2023-03-23T01:58:47.134Z,44.15
2023-03-23T01:59:47.195Z,44.31
2023-03-23T02:00:47.181Z,45.92
2023-03-23T02:01:47.172Z,47.86
2023-03-23T02:02:47.116Z,44.79
2023-03-23T02:03:47.102Z,56.56
2023-03-23T02:04:47.096Z,60.10
2023-03-23T02:05:47.117Z,55.59
2023-03-23T02:06:47.076Z,53.66
2023-03-23T02:07:47.110Z,52.37
2023-03-23T02:08:47.100Z,53.66
2023-03-23T02:09:47.030Z,52.85
2023-03-23T02:10:47.018Z,51.40
2023-03-23T02:11:47.051Z,49.47
2023-03-23T02:12:47.037Z,65.42
2023-03-23T02:13:47.012Z,68.32
2023-03-23T02:14:47.021Z,64.29
2023-03-23T02:15:47.039Z,56.24
2023-03-23T02:16:46.974Z,48.82
2023-03-23T02:17:47.005Z,60.75
2023-03-23T02:18:46.972Z,44.96
2023-03-23T02:19:46.974Z,44.79
2023-03-23T02:20:46.961Z,44.79
2023-03-23T02:21:46.909Z,45.60
2023-03-23T02:22:46.928Z,43.51
2023-03-23T02:23:46.965Z,49.95
2023-03-23T02:24:46.941Z,59.14
2023-03-23T02:25:46.946Z,55.91
2023-03-23T02:26:46.888Z,53.01
2023-03-23T02:27:46.930Z,44.47
2023-03-23T02:28:46.883Z,54.14
2023-03-23T02:29:46.845Z,45.92
2023-03-23T02:30:46.888Z,43.83
2023-03-23T02:31:46.841Z,45.60
2023-03-23T02:32:46.832Z,60.42
2023-03-23T02:33:46.821Z,41.73
2023-03-23T02:34:46.827Z,43.67
2023-03-23T02:35:46.806Z,46.08
2023-03-23T02:36:46.800Z,47.21
2023-03-23T02:37:46.777Z,44.96
2023-03-23T02:38:46.749Z,43.99
2023-03-23T02:39:46.743Z,50.76
2023-03-23T02:40:46.748Z,50.76
2023-03-23T02:41:46.762Z,60.26
2023-03-23T02:42:46.731Z,61.55
2023-03-23T02:43:46.695Z,61.55
2023-03-23T02:44:46.689Z,62.52
2023-03-23T02:45:46.692Z,61.39
2023-03-23T02:46:46.675Z,62.20
2023-03-23T02:47:46.711Z,64.29
2023-03-23T02:48:46.653Z,57.85
2023-03-23T02:49:46.675Z,57.04
2023-03-23T02:50:46.670Z,54.30
2023-03-23T02:51:46.667Z,55.27
2023-03-23T02:52:46.615Z,52.69
2023-03-23T02:53:46.661Z,49.15
2023-03-23T02:54:46.636Z,54.14
2023-03-23T02:55:46.602Z,52.05
2023-03-23T02:56:46.611Z,48.66
2023-03-23T02:57:46.604Z,48.98
2023-03-23T02:58:46.574Z,56.07
2023-03-23T02:59:46.576Z,59.78
2023-03-23T03:00:46.522Z,46.08
2023-03-23T03:01:46.538Z,62.36
2023-03-23T03:02:46.561Z,47.05
2023-03-23T03:03:46.533Z,47.37
2023-03-23T03:04:46.511Z,47.70
2023-03-23T03:05:46.525Z,46.08
2023-03-23T03:06:46.495Z,47.37
2023-03-23T03:07:46.460Z,48.34
2023-03-23T03:08:46.482Z,50.11
2023-03-23T03:09:46.481Z,47.70
2023-03-23T03:10:46.445Z,63.33
2023-03-23T03:11:46.455Z,48.66
2023-03-23T03:12:46.413Z,47.37
2023-03-23T03:13:46.446Z,62.36
2023-03-23T03:14:46.466Z,58.65
2023-03-23T03:15:46.424Z,51.56
2023-03-23T03:16:46.382Z,52.05
2023-03-23T03:17:46.393Z,64.94
2023-03-23T03:18:46.368Z,58.49
2023-03-23T03:19:46.356Z,54.14
2023-03-23T03:20:46.379Z,49.47
2023-03-23T03:21:46.349Z,48.50
2023-03-23T03:22:46.362Z,48.50
2023-03-23T03:23:46.330Z,60.91
2023-03-23T03:24:46.345Z,49.47
2023-03-23T03:25:46.312Z,47.86
2023-03-23T03:26:46.346Z,52.85
2023-03-23T03:27:46.340Z,52.05
2023-03-23T03:28:46.283Z,50.76
2023-03-23T03:29:46.262Z,50.43
2023-03-23T03:30:46.276Z,48.66
2023-03-23T03:31:46.249Z,46.73
2023-03-23T03:32:46.327Z,48.66
2023-03-23T03:33:46.282Z,48.02
2023-03-23T03:34:46.240Z,46.73
2023-03-23T03:35:46.261Z,45.76
2023-03-23T03:36:46.217Z,48.02
2023-03-23T03:37:46.223Z,61.71
2023-03-23T03:38:46.174Z,59.62
2023-03-23T03:39:46.183Z,57.52
2023-03-23T03:40:46.201Z,47.53
2023-03-23T03:41:46.216Z,47.21
2023-03-23T03:42:46.184Z,46.73
2023-03-23T03:43:46.159Z,62.20
2023-03-23T03:44:46.146Z,61.87
2023-03-23T03:45:46.133Z,62.04
2023-03-23T03:46:46.157Z,64.61
2023-03-23T03:47:46.151Z,60.75
2023-03-23T03:48:46.157Z,62.36
2023-03-23T03:49:46.104Z,59.46
2023-03-23T03:50:46.087Z,67.19
2023-03-23T03:51:46.106Z,57.69
2023-03-23T03:52:46.088Z,62.52
2023-03-23T03:53:46.084Z,62.20
2023-03-23T03:54:46.078Z,64.29
2023-03-23T03:55:46.020Z,64.29
2023-03-23T03:56:46.009Z,65.90
2023-03-23T03:57:46.036Z,65.26
2023-03-23T03:58:45.993Z,66.87
2023-03-23T03:59:46.970Z,70.09
2023-03-23T04:00:45.988Z,71.22
2023-03-23T04:01:45.966Z,68.32
2023-03-23T04:02:45.979Z,70.74
2023-03-23T04:03:45.940Z,67.19
2023-03-23T04:04:45.931Z,70.90
2023-03-23T04:05:45.931Z,72.03
2023-03-23T04:06:46.928Z,72.99
2023-03-23T04:07:45.905Z,69.61
2023-03-23T04:08:45.921Z,66.23
2023-03-23T04:09:46.880Z,63.97
2023-03-23T04:10:45.865Z,64.94
2023-03-23T04:11:45.874Z,67.35
2023-03-23T04:12:45.891Z,69.13
2023-03-23T04:13:45.915Z,70.74
2023-03-23T04:14:45.847Z,72.99
2023-03-23T04:15:45.853Z,70.25
2023-03-23T04:16:46.887Z,72.35
2023-03-23T04:17:46.837Z,68.16
2023-03-23T04:18:45.836Z,66.71
2023-03-23T04:19:46.805Z,65.74
2023-03-23T04:20:46.846Z,60.75
2023-03-23T04:21:45.799Z,61.71
2023-03-23T04:22:45.801Z,55.43
2023-03-23T04:23:45.789Z,64.78
2023-03-23T04:24:56.000Z,64.61
2023-03-23T04:25:46.777Z,64.45
2023-03-23T04:26:45.741Z,60.42
2023-03-23T04:27:45.796Z,65.26
2023-03-23T04:28:45.736Z,55.75
2023-03-23T04:29:45.705Z,58.81
2023-03-23T04:30:45.724Z,61.23
2023-03-23T04:31:45.721Z,56.88
2023-03-23T04:32:45.732Z,59.78
2023-03-23T04:33:59.593Z,57.36
2023-03-23T04:34:46.678Z,64.61
2023-03-23T04:35:45.660Z,59.46
2023-03-23T04:36:57.128Z,61.87
2023-03-23T04:37:46.665Z,62.36
2023-03-23T04:38:45.702Z,61.55
2023-03-23T04:39:45.638Z,66.23
2023-03-23T04:40:45.612Z,60.75
2023-03-23T04:41:45.596Z,64.29
2023-03-23T04:42:45.627Z,64.29
2023-03-23T04:43:45.566Z,64.78
2023-03-23T04:44:45.584Z,63.97
2023-03-23T04:45:45.613Z,64.78
2023-03-23T04:46:45.556Z,64.13
2023-03-23T04:47:45.553Z,63.65
2023-03-23T04:48:45.524Z,65.58
2023-03-23T04:49:45.575Z,64.45
2023-03-23T04:50:45.535Z,63.97
2023-03-23T04:51:45.492Z,62.68
2023-03-23T04:52:45.479Z,66.06
2023-03-23T04:53:45.536Z,61.07
2023-03-23T04:54:45.483Z,60.10
2023-03-23T04:55:45.466Z,63.97
2023-03-23T04:56:45.474Z,64.29
2023-03-23T04:57:45.478Z,63.65
2023-03-23T04:58:45.441Z,63.49
2023-03-23T04:59:45.453Z,63.33
2023-03-23T05:00:45.415Z,64.94
2023-03-23T05:01:45.438Z,64.61
2023-03-23T05:02:45.424Z,65.42
2023-03-23T05:03:45.393Z,69.61
2023-03-23T05:04:45.389Z,69.13
2023-03-23T05:05:45.369Z,66.06
2023-03-23T05:06:45.347Z,63.81
2023-03-23T05:07:45.465Z,64.61
2023-03-23T05:08:45.319Z,63.65
2023-03-23T05:09:45.318Z,63.33
2023-03-23T05:10:45.335Z,60.75
2023-03-23T05:11:45.313Z,64.45
2023-03-23T05:12:45.327Z,63.65
2023-03-23T05:13:45.301Z,66.87
2023-03-23T05:14:45.321Z,67.51
2023-03-23T05:15:45.266Z,64.94
2023-03-23T05:16:45.225Z,64.94
2023-03-23T05:17:45.270Z,65.58
2023-03-23T05:18:45.284Z,66.71
2023-03-23T05:19:45.237Z,67.03
2023-03-23T05:20:45.239Z,65.42
2023-03-23T05:21:45.268Z,64.45
2023-03-23T05:22:45.260Z,64.29
2023-03-23T05:23:45.192Z,65.26
2023-03-23T05:24:45.224Z,68.00
2023-03-23T05:25:45.204Z,64.29
2023-03-23T05:26:45.205Z,67.84
2023-03-23T05:27:45.202Z,69.45
2023-03-23T05:28:45.204Z,65.26
2023-03-23T05:29:45.120Z,62.20
2023-03-23T05:30:45.188Z,67.35
2023-03-23T05:31:45.194Z,63.33
2023-03-23T05:32:45.115Z,66.87
2023-03-23T05:33:45.123Z,67.68
2023-03-23T05:34:45.060Z,63.81
2023-03-23T05:35:45.313Z,67.68
2023-03-23T05:36:45.108Z,63.65
2023-03-23T05:37:45.048Z,67.84
2023-03-23T05:38:45.089Z,65.10
2023-03-23T05:39:45.044Z,65.58
2023-03-23T05:40:45.018Z,66.23
2023-03-23T05:41:46.667Z,62.20
2023-03-23T05:42:45.987Z,64.13
2023-03-23T05:43:45.014Z,67.68
2023-03-23T05:44:44.981Z,65.10
2023-03-23T05:45:44.965Z,61.71
2023-03-23T05:46:44.970Z,64.61
2023-03-23T05:47:44.947Z,56.72
2023-03-23T05:48:44.959Z,62.36
2023-03-23T05:49:44.921Z,65.74
2023-03-23T05:50:44.947Z,64.61
2023-03-23T05:51:44.915Z,66.39
2023-03-23T05:52:44.933Z,58.81
2023-03-23T05:53:44.946Z,63.33
2023-03-23T05:54:44.900Z,66.71
2023-03-23T05:55:44.879Z,67.51
2023-03-23T05:56:44.878Z,62.52
2023-03-23T05:57:44.936Z,66.23
2023-03-23T05:58:44.841Z,63.81
2023-03-23T05:59:44.857Z,62.68
2023-03-23T06:00:44.820Z,63.65
2023-03-23T06:01:44.844Z,67.35
2023-03-23T06:02:45.812Z,66.55
2023-03-23T06:03:44.850Z,63.16
2023-03-23T06:04:44.776Z,61.55
2023-03-23T06:05:44.802Z,62.36
2023-03-23T06:06:44.763Z,59.78
2023-03-23T06:07:44.760Z,62.68
2023-03-23T06:08:44.802Z,67.03
2023-03-23T06:09:44.736Z,69.29
2023-03-23T06:10:44.727Z,63.49
2023-03-23T06:11:44.730Z,56.07
2023-03-23T06:12:44.746Z,59.46
2023-03-23T06:13:44.759Z,63.33
2023-03-23T06:14:44.740Z,60.91
2023-03-23T06:15:44.682Z,58.17
2023-03-23T06:16:44.687Z,72.35
2023-03-23T06:17:44.678Z,54.95
2023-03-23T06:18:44.684Z,62.04
2023-03-23T06:19:44.638Z,63.81
2023-03-23T06:20:45.822Z,65.26
2023-03-23T06:21:44.602Z,65.90
2023-03-23T06:22:44.590Z,65.58
2023-03-23T06:23:44.654Z,61.39
2023-03-23T06:24:44.572Z,59.78
2023-03-23T06:25:44.595Z,65.42
2023-03-23T06:26:44.620Z,65.42
2023-03-23T06:27:46.501Z,64.13
2023-03-23T06:28:46.645Z,66.39
2023-03-23T06:29:44.552Z,60.75
2023-03-23T06:30:44.513Z,65.58
2023-03-23T06:31:44.481Z,63.81
2023-03-23T06:32:44.468Z,63.00
2023-03-23T06:33:44.484Z,63.00
2023-03-23T06:34:44.464Z,65.58
2023-03-23T06:35:44.713Z,63.00
2023-03-23T06:36:44.480Z,64.29
2023-03-23T06:37:44.412Z,62.36
2023-03-23T06:38:44.425Z,69.45
2023-03-23T06:39:44.373Z,61.55
2023-03-23T06:40:44.393Z,63.97
2023-03-23T06:41:44.351Z,53.33
2023-03-23T06:42:44.335Z,65.10
2023-03-23T06:43:44.378Z,61.71
2023-03-23T06:44:44.336Z,60.91
2023-03-23T06:45:44.414Z,63.97
2023-03-23T06:46:44.331Z,65.58
2023-03-23T06:47:44.322Z,62.36
2023-03-23T06:48:44.323Z,63.00
2023-03-23T06:49:44.385Z,68.80
2023-03-23T06:50:44.310Z,65.26
2023-03-23T06:51:44.321Z,64.94
2023-03-23T06:52:44.293Z,68.64
2023-03-23T06:53:44.289Z,66.23
2023-03-23T06:54:44.260Z,64.45
2023-03-23T06:55:44.241Z,63.16
2023-03-23T06:56:44.260Z,61.39
2023-03-23T06:57:44.229Z,64.29
2023-03-23T06:58:44.242Z,73.64
2023-03-23T06:59:44.198Z,69.77
2023-03-23T07:00:44.198Z,61.87
2023-03-23T07:01:44.188Z,68.48
2023-03-23T07:02:44.174Z,61.87
2023-03-23T07:03:44.188Z,57.04
2023-03-23T07:04:44.219Z,63.81
2023-03-23T07:05:44.175Z,61.39
2023-03-23T07:06:44.167Z,62.36
2023-03-23T07:07:44.145Z,60.26
2023-03-23T07:08:44.129Z,63.33
2023-03-23T07:09:44.098Z,65.10
2023-03-23T07:10:44.122Z,61.55
2023-03-23T07:11:44.124Z,61.71
2023-03-23T07:12:44.074Z,63.97
2023-03-23T07:13:44.130Z,68.48
2023-03-23T07:14:44.076Z,61.07
2023-03-23T07:15:44.171Z,60.59
2023-03-23T07:16:44.192Z,65.10
2023-03-23T07:17:44.066Z,63.16
2023-03-23T07:18:44.038Z,65.42
2023-03-23T07:19:44.107Z,62.36
2023-03-23T07:20:44.024Z,63.00
2023-03-23T07:21:43.984Z,61.39
2023-03-23T07:22:44.020Z,62.20
2023-03-23T07:23:44.023Z,53.01
2023-03-23T07:24:44.196Z,66.39
2023-03-23T07:25:44.100Z,63.00
2023-03-23T07:26:44.000Z,61.55
2023-03-23T07:27:44.007Z,65.58
2023-03-23T07:28:43.981Z,57.36
2023-03-23T07:29:43.979Z,65.90
2023-03-23T07:30:43.873Z,57.85
2023-03-23T07:31:44.959Z,63.81
2023-03-23T07:32:43.963Z,60.91
2023-03-23T07:33:43.970Z,61.23
2023-03-23T07:34:43.855Z,61.71
2023-03-23T07:35:44.101Z,60.75
2023-03-23T07:36:43.957Z,59.30
2023-03-23T07:37:44.095Z,65.42
2023-03-23T07:38:43.830Z,64.78
2023-03-23T07:39:43.848Z,56.07
2023-03-23T07:40:43.871Z,62.36
2023-03-23T07:41:43.881Z,65.42
2023-03-23T07:42:43.763Z,60.75
2023-03-23T07:43:43.803Z,59.30
2023-03-23T07:44:44.485Z,61.55
2023-03-23T07:45:43.973Z,59.14
2023-03-23T07:46:43.770Z,65.10
2023-03-23T07:47:43.758Z,61.87
2023-03-23T07:48:43.769Z,60.26
2023-03-23T07:49:43.781Z,62.04
2023-03-23T07:50:43.754Z,63.81
2023-03-23T07:51:43.716Z,60.26
2023-03-23T07:52:43.693Z,61.07
2023-03-23T07:53:43.680Z,60.91
2023-03-23T07:54:43.677Z,64.45
2023-03-23T07:55:44.088Z,63.81
2023-03-23T07:56:43.653Z,61.87
2023-03-23T07:57:43.633Z,59.46
2023-03-23T07:58:43.668Z,63.16
2023-03-23T07:59:43.616Z,53.01
2023-03-23T08:00:43.863Z,63.33
2023-03-23T08:01:43.557Z,55.91
2023-03-23T08:02:43.551Z,62.36
2023-03-23T08:03:43.572Z,68.32
2023-03-23T08:04:43.609Z,61.39
2023-03-23T08:05:43.891Z,61.55
2023-03-23T08:06:44.505Z,63.81
2023-03-23T08:07:43.545Z,62.68
2023-03-23T08:08:43.536Z,65.58
2023-03-23T08:09:43.546Z,60.26
2023-03-23T08:10:43.613Z,61.55
2023-03-23T08:11:43.587Z,61.39
2023-03-23T08:12:43.527Z,61.71
2023-03-23T08:13:43.611Z,59.30
2023-03-23T08:14:43.496Z,66.39
2023-03-23T08:15:43.771Z,68.48
2023-03-23T08:16:43.609Z,66.87
2023-03-23T08:17:43.503Z,60.10
2023-03-23T08:18:43.451Z,62.04
2023-03-23T08:19:43.522Z,60.75
2023-03-23T08:20:43.500Z,71.38
2023-03-23T08:21:43.475Z,64.78
2023-03-23T08:22:51.404Z,61.55
2023-03-23T08:23:45.400Z,52.85
2023-03-23T08:24:43.395Z,62.84
2023-03-23T08:25:43.738Z,62.52
2023-03-23T08:26:43.425Z,50.43
2023-03-23T08:27:43.355Z,61.23
2023-03-23T08:28:43.409Z,61.39
2023-03-23T08:29:43.328Z,65.42
2023-03-23T08:30:43.364Z,60.42
2023-03-23T08:31:43.325Z,61.07
2023-03-23T08:32:43.285Z,62.84
2023-03-23T08:33:43.375Z,61.87
2023-03-23T08:34:43.303Z,60.91
2023-03-23T08:35:43.453Z,56.72
2023-03-23T08:36:43.330Z,64.29
2023-03-23T08:37:43.294Z,61.07
2023-03-23T08:38:43.288Z,60.26
2023-03-23T08:39:43.321Z,65.10
2023-03-23T08:40:43.195Z,61.23
2023-03-23T08:41:44.236Z,60.42
2023-03-23T08:42:43.827Z,59.62
2023-03-23T08:43:44.315Z,57.36
2023-03-23T08:44:43.299Z,66.87
2023-03-23T08:48:41.682Z,63.65
2023-03-23T08:49:41.644Z,59.94
2023-03-23T08:50:40.858Z,67.35
2023-03-23T08:52:14.973Z,70.09
2023-03-23T08:52:41.964Z,68.48
2023-03-23T08:53:40.865Z,59.94
2023-03-23T08:54:40.902Z,62.36
2023-03-23T08:55:41.012Z,62.84
2023-03-23T08:56:40.828Z,52.53
2023-03-23T08:57:40.831Z,60.91
2023-03-23T08:58:40.796Z,69.29
2023-03-23T08:59:40.815Z,59.78
2023-03-23T09:01:18.142Z,60.59
2023-03-23T09:01:41.497Z,60.10
2023-03-23T09:02:40.937Z,60.59
2023-03-23T09:03:40.929Z,62.52
2023-03-23T09:04:40.777Z,69.77
2023-03-23T09:05:40.808Z,61.23
2023-03-23T09:06:41.013Z,52.53
2023-03-23T09:07:40.691Z,56.56
2023-03-23T09:08:40.743Z,56.72
2023-03-23T09:12:20.468Z,61.07
2023-03-23T09:13:15.311Z,65.42
2023-03-23T09:16:54.186Z,51.24
2023-03-23T09:18:34.949Z,53.50
2023-03-23T09:18:47.708Z,59.46
2023-03-23T09:19:47.656Z,66.71
2023-03-23T09:20:48.643Z,65.26
2023-03-23T09:21:47.636Z,63.65
2023-03-23T09:22:47.799Z,59.78
2023-03-23T09:24:13.882Z,62.52
2023-03-23T09:24:47.600Z,59.30
2023-03-23T09:25:47.778Z,62.68
2023-03-23T09:26:56.237Z,61.23
2023-03-23T09:27:47.583Z,65.90
2023-03-23T09:28:47.584Z,69.93
2023-03-23T09:29:47.557Z,57.20
2023-03-23T09:30:53.306Z,59.30
2023-03-23T09:31:48.559Z,62.52
2023-03-23T09:32:47.587Z,65.58
2023-03-23T09:33:47.542Z,62.04
2023-03-23T09:34:47.545Z,51.56
2023-03-23T09:35:47.537Z,61.39
2023-03-23T09:36:47.473Z,60.75
2023-03-23T09:37:47.482Z,51.56
2023-03-23T09:38:47.486Z,60.75
2023-03-23T09:39:47.450Z,63.81
2023-03-23T09:40:48.438Z,61.23
2023-03-23T09:41:47.458Z,59.78
2023-03-23T09:42:47.449Z,61.39
2023-03-23T09:43:47.470Z,62.36
2023-03-23T09:44:47.493Z,57.36
2023-03-23T09:45:48.670Z,66.55
2023-03-23T09:46:48.623Z,58.17
2023-03-23T09:47:48.604Z,60.26
2023-03-23T09:48:48.655Z,61.55
2023-03-23T09:49:48.598Z,63.33
2023-03-23T09:50:48.590Z,58.33
2023-03-23T09:51:48.620Z,61.55
2023-03-23T09:52:48.518Z,61.87
2023-03-23T09:53:48.561Z,61.07
2023-03-23T09:54:48.534Z,60.10
2023-03-23T09:55:48.453Z,60.91
2023-03-23T09:56:48.489Z,61.87
2023-03-23T09:57:48.484Z,61.39
2023-03-23T09:58:48.448Z,63.00
2023-03-23T09:59:48.459Z,59.78
2023-03-23T10:00:48.526Z,63.65
2023-03-23T10:01:48.444Z,60.26
2023-03-23T10:02:49.016Z,62.68
2023-03-23T10:03:48.419Z,61.23
2023-03-23T10:04:48.424Z,61.55
2023-03-23T10:05:48.408Z,64.61
2023-03-23T10:06:48.426Z,62.68
2023-03-23T10:07:50.309Z,59.30
2023-03-23T10:08:56.811Z,57.69
2023-03-23T10:09:50.417Z,63.00
2023-03-23T10:10:48.329Z,48.66
2023-03-23T10:11:48.761Z,61.23
2023-03-23T10:12:49.277Z,64.61
2023-03-23T10:13:48.251Z,52.69
2023-03-23T10:14:48.264Z,51.08
2023-03-23T10:15:48.269Z,61.23
2023-03-23T10:16:48.287Z,55.91
2023-03-23T10:17:48.285Z,60.26
2023-03-23T10:18:48.256Z,50.43
2023-03-23T10:19:48.230Z,63.16
2023-03-23T10:20:48.229Z,62.52
2023-03-23T10:21:48.212Z,69.13
2023-03-23T10:22:48.288Z,64.13
2023-03-23T10:23:48.205Z,62.36
2023-03-23T10:24:48.192Z,61.71
2023-03-23T10:25:48.179Z,63.49
2023-03-23T10:26:48.140Z,62.36
2023-03-23T10:27:48.196Z,63.16
2023-03-23T10:28:48.128Z,62.36
2023-03-23T10:29:48.141Z,62.36
2023-03-23T10:30:48.144Z,60.26
2023-03-23T10:31:48.079Z,60.75
2023-03-23T10:32:48.090Z,56.88
2023-03-23T10:33:48.093Z,62.36
2023-03-23T10:34:48.084Z,61.55
2023-03-23T10:35:48.116Z,60.59
2023-03-23T10:36:48.057Z,50.43
2023-03-23T10:37:48.069Z,63.65
2023-03-23T10:38:48.069Z,61.87
2023-03-23T10:39:48.069Z,62.36
2023-03-23T10:40:48.123Z,60.10
2023-03-23T10:41:47.999Z,65.74
2023-03-23T10:42:48.004Z,58.33
2023-03-23T10:43:48.025Z,68.96
2023-03-23T10:44:48.217Z,61.71
2023-03-23T10:45:59.961Z,61.07
2023-03-23T10:46:50.042Z,56.88
2023-03-23T10:47:48.958Z,69.61
2023-03-23T10:48:48.048Z,70.09
2023-03-23T10:49:47.925Z,64.61
2023-03-23T10:50:47.976Z,66.71
2023-03-23T10:51:47.944Z,60.91
2023-03-23T10:52:47.927Z,64.29
2023-03-23T10:53:47.903Z,65.42
2023-03-23T10:54:47.918Z,59.94
2023-03-23T10:55:47.933Z,60.26
2023-03-23T10:56:58.838Z,65.10
2023-03-23T10:57:49.849Z,61.55
2023-03-23T10:58:47.829Z,62.52
2023-03-23T10:59:47.834Z,67.19
2023-03-23T11:00:47.821Z,64.29
2023-03-23T11:01:47.801Z,64.29
2023-03-23T11:02:47.797Z,61.87
2023-03-23T11:03:47.785Z,55.75
2023-03-23T11:04:47.794Z,61.55
2023-03-23T11:05:47.777Z,63.49
2023-03-23T11:06:47.750Z,60.42
2023-03-23T11:07:47.748Z,61.55
2023-03-23T11:08:47.746Z,63.81
2023-03-23T11:09:47.751Z,61.55
2023-03-23T11:10:47.748Z,58.97
2023-03-23T11:11:47.701Z,66.55
2023-03-23T11:12:47.723Z,51.56
2023-03-23T11:13:47.689Z,61.87
2023-03-23T11:14:47.724Z,63.81
2023-03-23T11:15:47.683Z,60.42
2023-03-23T11:16:47.654Z,62.84
2023-03-23T11:17:47.660Z,60.59
2023-03-23T11:18:47.654Z,69.13
2023-03-23T11:19:47.645Z,60.91
2023-03-23T11:20:47.659Z,57.69
2023-03-23T11:21:47.646Z,63.65
2023-03-23T11:22:47.618Z,66.55
2023-03-23T11:23:48.240Z,60.42
2023-03-23T11:24:47.630Z,56.72
2023-03-23T11:25:47.643Z,64.13
2023-03-23T11:26:56.913Z,73.96
2023-03-23T11:27:49.550Z,61.71
2023-03-23T11:28:47.518Z,61.87
2023-03-23T11:29:55.003Z,63.16
2023-03-23T11:30:48.517Z,64.45
2023-03-23T11:31:47.524Z,62.36
2023-03-23T11:32:47.488Z,61.71
2023-03-23T11:33:52.038Z,61.87
2023-03-23T11:34:48.483Z,60.91
2023-03-23T11:35:47.493Z,64.61
2023-03-23T11:36:47.449Z,62.36
2023-03-23T11:37:47.438Z,59.78
2023-03-23T11:38:47.445Z,64.45
2023-03-23T11:39:47.425Z,62.84
2023-03-23T11:40:47.413Z,59.78
2023-03-23T11:41:48.203Z,66.23
2023-03-23T11:42:47.464Z,54.30
2023-03-23T11:43:47.496Z,64.78
2023-03-23T11:44:47.406Z,53.01
2023-03-23T11:45:47.549Z,64.13
2023-03-23T11:46:48.460Z,53.01
2023-03-23T11:47:47.473Z,63.81
2023-03-23T11:48:47.497Z,59.30
2023-03-23T11:49:47.476Z,60.91
2023-03-23T11:50:47.438Z,61.39
2023-03-23T11:51:47.533Z,60.91
2023-03-23T11:52:56.164Z,59.30
2023-03-23T11:54:21.465Z,60.75
2023-03-23T11:54:47.307Z,62.20
2023-03-23T11:55:47.328Z,56.72
2023-03-23T11:56:47.257Z,53.33
2023-03-23T11:57:47.298Z,65.10
2023-03-23T11:58:47.348Z,63.81
2023-03-23T11:59:47.274Z,61.23
2023-03-23T12:00:48.581Z,60.75
2023-03-23T12:01:47.236Z,61.55
2023-03-23T12:02:47.244Z,62.52
2023-03-23T12:03:47.231Z,61.55
2023-03-23T12:04:47.189Z,66.55
2023-03-23T12:05:47.262Z,61.23
2023-03-23T12:06:47.228Z,62.84
2023-03-23T12:07:47.167Z,66.23
2023-03-23T12:08:47.272Z,61.71
2023-03-23T12:09:47.151Z,62.36
2023-03-23T12:11:48.167Z,60.59
2023-03-23T12:12:47.168Z,62.84
2023-03-23T12:13:52.969Z,58.17
2023-03-23T12:14:48.103Z,65.26
2023-03-23T12:15:47.208Z,52.05
2023-03-23T12:16:47.154Z,65.90
2023-03-23T12:17:47.136Z,66.71
2023-03-23T12:18:47.084Z,67.68
2023-03-23T12:19:47.090Z,63.00
2023-03-23T12:20:47.113Z,60.10
2023-03-23T12:21:47.042Z,65.90
2023-03-23T12:22:47.043Z,66.23
2023-03-23T12:23:47.032Z,62.20
2023-03-23T12:24:47.039Z,62.36
2023-03-23T12:25:51.503Z,62.04
2023-03-23T12:26:47.066Z,61.87
2023-03-23T12:27:47.064Z,64.13
2023-03-23T12:28:47.020Z,62.84
2023-03-23T12:29:47.061Z,62.84
2023-03-23T12:30:47.076Z,61.87
2023-03-23T12:31:47.017Z,63.00
2023-03-23T12:32:48.033Z,63.33
2023-03-23T12:33:48.870Z,61.23
2023-03-23T12:34:46.946Z,57.52
2023-03-23T12:35:47.079Z,59.62
2023-03-23T12:36:46.930Z,60.42
2023-03-23T12:37:47.002Z,62.04
2023-03-23T12:38:46.953Z,63.97
2023-03-23T12:39:46.918Z,59.30
2023-03-23T12:40:47.086Z,62.52
2023-03-23T12:41:47.002Z,59.14
2023-03-23T12:42:46.944Z,63.97
2023-03-23T12:43:46.936Z,67.35
2023-03-23T12:44:46.928Z,62.20
2023-03-23T12:45:46.969Z,57.85
2023-03-23T12:46:47.819Z,60.59
2023-03-23T12:47:46.884Z,64.29
2023-03-23T12:48:46.915Z,63.16
2023-03-23T12:49:46.843Z,62.20
2023-03-23T12:50:46.894Z,63.97
2023-03-23T12:51:46.754Z,63.33
2023-03-23T12:52:46.824Z,68.64
2023-03-23T12:53:46.756Z,59.78
2023-03-23T12:54:46.760Z,73.96
2023-03-23T12:55:46.737Z,73.96
2023-03-23T12:56:46.776Z,67.68
2023-03-23T12:57:46.676Z,65.58
2023-03-23T12:58:47.522Z,67.51
2023-03-23T12:59:46.716Z,61.39
2023-03-23T13:00:46.680Z,67.19
2023-03-23T13:01:46.688Z,60.26
2023-03-23T13:02:46.703Z,57.20
2023-03-23T13:03:48.157Z,62.04